createdAt,value
2018-04-23T00:01:04.277Z,76.01
2018-04-23T00:02:12.341Z,76.39
2018-04-23T00:03:20.406Z,75.81
2018-04-23T00:04:28.450Z,75.95
2018-04-23T00:05:36.528Z,75.81
2018-04-23T00:06:44.573Z,75.91
2018-04-23T00:07:52.638Z,76.33
2018-04-23T00:09:00.709Z,75.76
2018-04-23T00:10:08.788Z,75.37
2018-04-23T00:11:16.841Z,75.43
2018-04-23T00:12:24.928Z,75.95
2018-04-23T00:13:32.956Z,75.85
2018-04-23T00:14:41.022Z,75.53
2018-04-23T00:15:49.095Z,75.85
2018-04-23T00:16:57.155Z,75.28
2018-04-23T00:18:05.193Z,76.42
2018-04-23T00:19:13.276Z,76.29
2018-04-23T00:20:21.330Z,76.42
2018-04-23T00:21:29.401Z,76.42
2018-04-23T00:22:37.463Z,76.71
2018-04-23T00:23:45.511Z,76.33
2018-04-23T00:24:53.575Z,76.42
2018-04-23T00:26:01.627Z,76.90
2018-04-23T00:27:09.704Z,77.00
2018-04-23T00:28:17.769Z,76.33
2018-04-23T00:29:25.830Z,77.38
2018-04-23T00:30:33.910Z,77.19
2018-04-23T00:31:41.956Z,77.28
2018-04-23T00:32:50.024Z,77.19
2018-04-23T00:33:58.086Z,77.00
2018-04-23T00:35:06.146Z,77.38
2018-04-23T00:36:14.228Z,76.71
2018-04-23T00:37:22.272Z,77.28
2018-04-23T00:38:30.344Z,76.71
2018-04-23T00:39:38.400Z,77.47
2018-04-23T00:40:46.451Z,76.90
2018-04-23T00:41:54.520Z,76.52
2018-04-23T00:43:02.570Z,76.62
2018-04-23T00:44:10.650Z,76.81
2018-04-23T00:45:18.711Z,77.09
2018-04-23T00:46:26.769Z,76.81
2018-04-23T00:47:34.849Z,76.90
2018-04-23T00:48:42.910Z,76.71
2018-04-23T00:49:50.952Z,77.47
2018-04-23T00:50:59.034Z,76.42
2018-04-23T00:52:07.095Z,77.19
2018-04-23T00:53:15.115Z,76.52
2018-04-23T00:54:23.211Z,77.00
2018-04-23T00:55:31.270Z,77.19
2018-04-23T00:56:39.337Z,77.19
2018-04-23T00:57:47.402Z,76.04
2018-04-23T00:58:55.444Z,77.00
2018-04-23T01:00:03.507Z,77.38
2018-04-23T01:01:11.587Z,77.28
2018-04-23T01:02:19.640Z,77.19
2018-04-23T01:03:27.715Z,76.52
2018-04-23T01:04:35.770Z,76.62
2018-04-23T01:05:43.841Z,76.33
2018-04-23T01:06:51.890Z,76.04
2018-04-23T01:07:59.961Z,75.57
2018-04-23T01:09:08.026Z,75.95
2018-04-23T01:10:16.088Z,76.62
2018-04-23T01:11:24.136Z,76.42
2018-04-23T01:12:32.200Z,76.81
2018-04-23T01:13:40.274Z,77.28
2018-04-23T01:14:48.326Z,76.33
2018-04-23T01:15:56.393Z,76.90
2018-04-23T01:17:04.462Z,76.71
2018-04-23T01:18:12.531Z,77.19
2018-04-23T01:19:20.575Z,76.71
2018-04-23T01:20:28.643Z,76.33
2018-04-23T01:21:36.713Z,77.09
2018-04-23T01:22:44.760Z,76.62
2018-04-23T01:23:52.832Z,76.71
2018-04-23T01:25:00.890Z,77.19
2018-04-23T01:26:08.955Z,77.38
2018-04-23T01:27:17.028Z,77.19
2018-04-23T01:28:25.059Z,77.57
2018-04-23T01:29:33.141Z,78.14
2018-04-23T01:30:41.214Z,77.91
2018-04-23T01:31:49.264Z,78.14
2018-04-23T01:32:57.331Z,77.53
2018-04-23T01:34:05.368Z,78.10
2018-04-23T01:35:13.456Z,78.30
2018-04-23T01:36:21.523Z,78.01
2018-04-23T01:37:29.587Z,77.91
2018-04-23T01:38:37.639Z,78.30
2018-04-23T01:39:45.709Z,77.28
2018-04-23T01:40:53.776Z,77.67
2018-04-23T01:42:01.838Z,77.44
2018-04-23T01:43:09.901Z,77.53
2018-04-23T01:44:17.962Z,78.33
2018-04-23T01:45:26.024Z,77.62
2018-04-23T01:46:34.083Z,77.44
2018-04-23T01:47:42.152Z,77.34
2018-04-23T01:48:50.213Z,77.67
2018-04-23T01:49:58.275Z,77.95
2018-04-23T01:51:06.344Z,78.43
2018-04-23T01:52:14.393Z,78.91
2018-04-23T01:53:22.455Z,76.90
2018-04-23T01:54:30.521Z,77.38
2018-04-23T01:55:38.560Z,77.28
2018-04-23T01:56:46.650Z,77.57
2018-04-23T01:57:54.710Z,77.28
2018-04-23T01:59:02.768Z,77.86
2018-04-23T02:00:10.828Z,78.05
2018-04-23T02:01:18.909Z,78.52
2018-04-23T02:02:26.959Z,77.86
2018-04-23T02:03:35.001Z,78.43
2018-04-23T02:04:43.080Z,78.58
2018-04-23T02:05:51.141Z,78.58
2018-04-23T02:06:59.203Z,79.06
2018-04-23T02:08:07.269Z,79.38
2018-04-23T02:09:15.314Z,79.10
2018-04-23T02:10:23.393Z,79.25
2018-04-23T02:11:31.469Z,78.96
2018-04-23T02:12:39.513Z,79.35
2018-04-23T02:13:47.579Z,78.96
2018-04-23T02:14:55.637Z,78.67
2018-04-23T02:16:03.746Z,79.44
2018-04-23T02:17:11.783Z,79.15
2018-04-23T02:18:19.832Z,78.58
2018-04-23T02:19:27.889Z,78.96
2018-04-23T02:20:35.946Z,79.15
2018-04-23T02:21:44.030Z,78.49
2018-04-23T02:22:52.125Z,79.35
2018-04-23T02:24:00.133Z,79.15
2018-04-23T02:25:08.209Z,78.39
2018-04-23T02:26:16.270Z,78.96
2018-04-23T02:27:24.334Z,78.58
2018-04-23T02:28:32.397Z,79.06
2018-04-23T02:29:40.455Z,79.63
2018-04-23T02:30:48.525Z,79.15
2018-04-23T02:31:56.580Z,79.53
2018-04-23T02:33:05.440Z,79.91
2018-04-23T02:34:12.701Z,79.82
2018-04-23T02:35:20.782Z,79.72
2018-04-23T02:36:28.834Z,79.91
2018-04-23T02:37:36.894Z,80.01
2018-04-23T02:38:44.922Z,78.77
2018-04-23T02:39:53.021Z,79.25
2018-04-23T02:41:01.108Z,79.15
2018-04-23T02:42:09.135Z,79.25
2018-04-23T02:43:17.188Z,78.49
2018-04-23T02:44:25.253Z,78.58
2018-04-23T02:45:33.334Z,78.20
2018-04-23T02:46:41.393Z,78.86
2018-04-23T02:47:49.448Z,78.58
2018-04-23T02:48:57.531Z,78.39
2018-04-23T02:50:05.573Z,78.01
2018-04-23T02:51:13.646Z,77.91
2018-04-23T02:52:21.713Z,78.01
2018-04-23T02:53:29.758Z,78.67
2018-04-23T02:54:37.843Z,76.86
2018-04-23T02:55:45.903Z,77.97
2018-04-23T02:56:53.945Z,77.78
2018-04-23T02:58:02.013Z,75.11
2018-04-23T02:59:10.078Z,75.78
2018-04-23T03:00:18.136Z,77.01
2018-04-23T03:01:26.192Z,76.35
2018-04-23T03:02:34.273Z,76.64
2018-04-23T03:03:42.327Z,77.20
2018-04-23T03:04:50.407Z,76.73
2018-04-23T03:05:58.443Z,75.78
2018-04-23T03:07:06.510Z,76.73
2018-04-23T03:08:14.578Z,77.69
2018-04-23T03:09:22.626Z,77.30
2018-04-23T03:10:30.697Z,76.92
2018-04-23T03:11:38.755Z,74.25
2018-04-23T03:12:46.822Z,74.35
2018-04-23T03:13:54.864Z,76.92
2018-04-23T03:15:02.923Z,78.64
2018-04-23T03:16:10.999Z,79.30
2018-04-23T03:17:19.071Z,77.78
2018-04-23T03:18:27.132Z,77.97
2018-04-23T03:19:35.204Z,77.87
2018-04-23T03:20:43.249Z,77.97
2018-04-23T03:21:51.311Z,78.54
2018-04-23T03:22:59.387Z,78.06
2018-04-23T03:24:07.455Z,77.78
2018-04-23T03:25:15.483Z,78.64
2018-04-23T03:26:23.555Z,78.35
2018-04-23T03:27:31.633Z,78.16
2018-04-23T03:28:39.682Z,78.06
2018-04-23T03:29:47.758Z,77.78
2018-04-23T03:30:55.824Z,77.69
2018-04-23T03:32:03.867Z,78.44
2018-04-23T03:33:11.941Z,77.87
2018-04-23T03:34:19.980Z,78.44
2018-04-23T03:35:28.053Z,78.35
2018-04-23T03:36:36.116Z,77.97
2018-04-23T03:37:44.178Z,78.35
2018-04-23T03:38:52.256Z,78.44
2018-04-23T03:40:00.315Z,78.83
2018-04-23T03:41:08.367Z,79.40
2018-04-23T03:42:16.420Z,79.11
2018-04-23T03:43:24.483Z,78.88
2018-04-23T03:44:32.567Z,79.11
2018-04-23T03:45:40.608Z,78.44
2018-04-23T03:46:48.679Z,79.07
2018-04-23T03:47:56.741Z,80.07
2018-04-23T03:49:04.780Z,79.59
2018-04-23T03:50:12.863Z,80.35
2018-04-23T03:51:20.927Z,80.54
2018-04-23T03:52:28.988Z,79.68
2018-04-23T03:53:37.041Z,79.68
2018-04-23T03:54:45.083Z,80.26
2018-04-23T03:55:53.163Z,79.88
2018-04-23T03:57:01.243Z,79.21
2018-04-23T03:58:09.291Z,78.06
2018-04-23T03:59:17.362Z,79.02
2018-04-23T04:00:25.403Z,78.54
2018-04-23T04:01:33.495Z,78.25
2018-04-23T04:02:41.548Z,78.44
2018-04-23T04:03:49.602Z,77.87
2018-04-23T04:04:57.662Z,77.87
2018-04-23T04:06:05.724Z,78.06
2018-04-23T04:07:13.874Z,77.87
2018-04-23T04:08:21.860Z,77.69
2018-04-23T04:09:29.925Z,76.54
2018-04-23T04:10:37.986Z,76.57
2018-04-23T04:11:46.043Z,77.34
2018-04-23T04:12:54.368Z,76.96
2018-04-23T04:14:02.168Z,77.91
2018-04-23T04:15:10.221Z,77.53
2018-04-23T04:16:18.285Z,78.58
2018-04-23T04:17:26.348Z,78.39
2018-04-23T04:18:34.411Z,77.82
2018-04-23T04:19:42.460Z,77.91
2018-04-23T04:20:50.539Z,78.20
2018-04-23T04:21:58.603Z,78.20
2018-04-23T04:23:06.653Z,78.77
2018-04-23T04:24:14.718Z,79.35
2018-04-23T04:25:22.786Z,79.35
2018-04-23T04:26:30.852Z,79.15
2018-04-23T04:27:38.908Z,80.20
2018-04-23T04:28:46.960Z,79.91
2018-04-23T04:29:54.995Z,79.63
2018-04-23T04:31:03.086Z,79.72
2018-04-23T04:32:11.166Z,79.91
2018-04-23T04:33:19.219Z,80.58
2018-04-23T04:34:27.276Z,80.64
2018-04-23T04:35:35.443Z,81.02
2018-04-23T04:36:43.403Z,81.12
2018-04-23T04:37:51.464Z,80.73
2018-04-23T04:38:59.591Z,80.83
2018-04-23T04:40:07.590Z,79.72
2018-04-23T04:41:15.651Z,81.12
2018-04-23T04:42:23.702Z,80.83
2018-04-23T04:43:31.782Z,81.25
2018-04-23T04:44:39.838Z,82.11
2018-04-23T04:45:47.909Z,80.39
2018-04-23T04:46:55.994Z,80.96
2018-04-23T04:48:04.018Z,81.06
2018-04-23T04:49:12.082Z,81.06
2018-04-23T04:50:20.498Z,81.35
2018-04-23T04:51:28.219Z,81.63
2018-04-23T04:52:36.257Z,80.68
2018-04-23T04:53:44.342Z,80.96
2018-04-23T04:54:52.387Z,81.54
2018-04-23T04:56:00.463Z,81.63
2018-04-23T04:57:08.513Z,81.25
2018-04-23T04:58:16.606Z,81.54
2018-04-23T04:59:24.635Z,81.63
2018-04-23T05:00:33.079Z,80.58
2018-04-23T05:01:40.978Z,80.39
2018-04-23T05:02:49.021Z,81.54
2018-04-23T05:03:56.877Z,80.96
2018-04-23T05:05:04.927Z,79.82
2018-04-23T05:06:13.011Z,80.96
2018-04-23T05:07:21.083Z,81.54
2018-04-23T05:08:29.145Z,82.01
2018-04-23T05:09:37.200Z,81.73
2018-04-23T05:10:45.229Z,81.15
2018-04-23T05:11:53.324Z,81.73
2018-04-23T05:13:01.386Z,82.30
2018-04-23T05:14:09.457Z,82.49
2018-04-23T05:15:17.519Z,82.59
2018-04-23T05:16:25.572Z,82.11
2018-04-23T05:17:33.640Z,82.59
2018-04-23T05:18:41.706Z,81.92
2018-04-23T05:19:49.754Z,82.78
2018-04-23T05:20:57.816Z,82.01
2018-04-23T05:22:05.929Z,82.30
2018-04-23T05:23:13.954Z,82.49
2018-04-23T05:24:22.011Z,82.68
2018-04-23T05:25:30.081Z,82.49
2018-04-23T05:26:38.141Z,82.01
2018-04-23T05:27:46.204Z,82.20
2018-04-23T05:28:54.260Z,81.82
2018-04-23T05:30:02.398Z,82.20
2018-04-23T05:31:10.392Z,82.11
2018-04-23T05:32:18.435Z,81.73
2018-04-23T05:33:26.497Z,81.54
2018-04-23T05:34:34.566Z,81.73
2018-04-23T05:35:42.629Z,81.54
2018-04-23T05:36:50.698Z,81.82
2018-04-23T05:37:58.761Z,81.35
2018-04-23T05:39:06.824Z,81.06
2018-04-23T05:40:14.857Z,80.77
2018-04-23T05:41:22.945Z,80.77
2018-04-23T05:42:31.008Z,80.58
2018-04-23T05:43:39.086Z,80.96
2018-04-23T05:44:47.150Z,80.62
2018-04-23T05:45:55.170Z,79.86
2018-04-23T05:47:03.261Z,79.86
2018-04-23T05:48:11.304Z,79.48
2018-04-23T05:49:19.382Z,78.62
2018-04-23T05:50:27.438Z,77.38
2018-04-23T05:51:35.500Z,77.28
2018-04-23T05:52:43.566Z,77.28
2018-04-23T05:53:51.628Z,76.65
2018-04-23T05:54:59.702Z,76.56
2018-04-23T05:56:07.770Z,76.84
2018-04-23T05:57:15.828Z,76.27
2018-04-23T05:58:23.916Z,75.13
2018-04-23T05:59:31.944Z,74.11
2018-04-23T06:00:40.022Z,75.64
2018-04-23T06:01:48.071Z,73.73
2018-04-23T06:02:56.140Z,72.62
2018-04-23T06:04:04.205Z,72.43
2018-04-23T06:05:12.306Z,72.94
2018-04-23T06:06:20.362Z,71.13
2018-04-23T06:07:28.393Z,69.70
2018-04-23T06:08:36.448Z,69.06
2018-04-23T06:09:44.530Z,68.49
2018-04-23T06:10:52.582Z,67.34
2018-04-23T06:12:00.642Z,66.38
2018-04-23T06:13:08.693Z,66.22
2018-04-23T06:14:16.795Z,66.03
2018-04-23T06:15:24.825Z,64.53
2018-04-23T06:16:32.896Z,64.92
2018-04-23T06:17:40.967Z,61.76
2018-04-23T06:18:49.032Z,61.85
2018-04-23T06:19:57.107Z,63.00
2018-04-23T06:21:05.151Z,60.80
2018-04-23T06:22:13.227Z,63.70
2018-04-23T06:23:21.301Z,62.74
2018-04-23T06:24:29.353Z,61.79
2018-04-23T06:25:37.436Z,61.60
2018-04-23T06:26:45.477Z,63.51
2018-04-23T06:27:53.548Z,61.02
2018-04-23T06:29:01.621Z,61.79
2018-04-23T06:30:09.689Z,62.68
2018-04-23T06:31:17.750Z,62.10
2018-04-23T06:32:25.821Z,60.86
2018-04-23T06:33:33.886Z,61.34
2018-04-23T06:34:41.948Z,62.68
2018-04-23T06:35:50.010Z,64.40
2018-04-23T06:36:58.081Z,64.59
2018-04-23T06:38:06.142Z,63.92
2018-04-23T06:39:14.212Z,65.17
2018-04-23T06:40:22.335Z,65.65
2018-04-23T06:41:30.358Z,63.64
2018-04-23T06:42:38.424Z,63.73
2018-04-23T06:43:46.482Z,62.87
2018-04-23T06:44:54.538Z,63.26
2018-04-23T06:46:02.610Z,63.64
2018-04-23T06:47:10.690Z,62.68
2018-04-23T06:48:18.742Z,62.39
2018-04-23T06:49:26.821Z,62.96
2018-04-23T06:50:34.866Z,62.39
2018-04-23T06:51:42.967Z,61.63
2018-04-23T06:52:51.005Z,63.06
2018-04-23T06:53:59.078Z,62.77
2018-04-23T06:55:07.140Z,61.66
2018-04-23T06:56:15.198Z,61.27
2018-04-23T06:57:23.273Z,63.00
2018-04-23T06:58:31.366Z,59.26
2018-04-23T06:59:39.415Z,59.64
2018-04-23T07:00:47.492Z,59.06
2018-04-23T07:01:55.541Z,60.50
2018-04-23T07:03:03.623Z,60.25
2018-04-23T07:04:11.686Z,58.52
2018-04-23T07:05:19.764Z,61.49
2018-04-23T07:06:27.831Z,58.52
2018-04-23T07:07:35.891Z,58.42
2018-04-23T07:08:43.945Z,57.08
2018-04-23T07:09:52.021Z,59.12
2018-04-23T07:11:00.085Z,58.64
2018-04-23T07:12:08.154Z,57.85
2018-04-23T07:13:16.235Z,57.97
2018-04-23T07:14:24.290Z,56.92
2018-04-23T07:15:32.353Z,56.56
2018-04-23T07:16:40.435Z,57.81
2018-04-23T07:17:48.491Z,56.88
2018-04-23T07:18:56.572Z,53.25
2018-04-23T07:20:04.602Z,53.19
2018-04-23T07:21:12.680Z,50.13
2018-04-23T07:22:20.748Z,49.38
2018-04-23T07:23:28.837Z,47.60
2018-04-23T07:24:36.900Z,46.66
2018-04-23T07:25:44.959Z,47.72
2018-04-23T07:26:53.028Z,47.92
2018-04-23T07:28:01.099Z,48.28
2018-04-23T07:29:09.181Z,49.02
2018-04-23T07:30:17.250Z,49.41
2018-04-23T07:31:25.291Z,49.68
2018-04-23T07:32:33.397Z,50.06
2018-04-23T07:33:41.460Z,51.50
2018-04-23T07:34:49.549Z,50.45
2018-04-23T07:35:57.605Z,50.54
2018-04-23T07:37:05.673Z,50.35
2018-04-23T07:38:13.729Z,50.73
2018-04-23T07:39:21.804Z,50.93
2018-04-23T07:40:29.894Z,51.21
2018-04-23T07:41:37.948Z,51.60
2018-04-23T07:42:46.031Z,51.21
2018-04-23T07:43:54.099Z,50.15
2018-04-23T07:45:02.163Z,50.83
2018-04-23T07:46:10.238Z,51.14
2018-04-23T07:47:18.319Z,48.66
2018-04-23T07:48:26.380Z,46.95
2018-04-23T07:49:34.456Z,47.94
2018-04-23T07:50:42.525Z,46.88
2018-04-23T07:51:50.591Z,46.56
2018-04-23T07:52:58.675Z,45.24
2018-04-23T07:54:06.748Z,44.49
2018-04-23T07:55:14.783Z,45.17
2018-04-23T07:56:22.877Z,44.03
2018-04-23T07:57:30.940Z,43.84
2018-04-23T07:58:39.029Z,43.74
2018-04-23T07:59:47.093Z,44.03
2018-04-23T08:00:55.152Z,44.60
2018-04-23T08:02:03.284Z,44.82
2018-04-23T08:03:11.328Z,43.26
2018-04-23T08:04:19.405Z,43.74
2018-04-23T08:05:27.470Z,44.29
2018-04-23T08:06:35.596Z,44.78
2018-04-23T08:07:43.616Z,44.87
2018-04-23T08:08:51.694Z,44.68
2018-04-23T08:09:59.770Z,44.66
2018-04-23T08:11:07.849Z,44.87
2018-04-23T08:12:15.986Z,45.04
2018-04-23T08:13:23.999Z,45.70
2018-04-23T08:14:32.074Z,46.37
2018-04-23T08:15:40.148Z,48.21
2018-04-23T08:16:48.219Z,46.01
2018-04-23T08:17:56.277Z,45.26
2018-04-23T08:19:04.371Z,45.17
2018-04-23T08:20:12.492Z,45.07
2018-04-23T08:21:20.517Z,44.70
2018-04-23T08:22:28.593Z,44.90
2018-04-23T08:23:36.719Z,44.15
2018-04-23T08:24:44.720Z,44.42
2018-04-23T08:25:52.826Z,44.63
2018-04-23T08:27:00.888Z,42.33
2018-04-23T08:28:08.966Z,42.21
2018-04-23T08:29:17.039Z,43.59
2018-04-23T08:30:25.107Z,42.04
2018-04-23T08:31:33.197Z,41.60
2018-04-23T08:32:41.269Z,41.31
2018-04-23T08:33:49.363Z,42.49
2018-04-23T08:34:57.436Z,39.90
2018-04-23T08:36:05.489Z,40.36
2018-04-23T08:37:13.595Z,41.42
2018-04-23T08:38:21.652Z,42.49
2018-04-23T08:39:29.751Z,41.33
2018-04-23T08:40:37.811Z,39.80
2018-04-23T08:41:45.904Z,41.21
2018-04-23T08:42:53.966Z,42.49
2018-04-23T08:44:02.042Z,41.41
2018-04-23T08:45:10.134Z,42.57
2018-04-23T08:46:18.197Z,41.24
2018-04-23T08:47:26.276Z,39.97
2018-04-23T08:48:34.367Z,41.21
2018-04-23T08:49:42.439Z,42.66
2018-04-23T08:50:50.502Z,42.18
2018-04-23T08:51:58.588Z,44.31
2018-04-23T08:53:06.669Z,43.92
2018-04-23T08:54:14.727Z,43.32
2018-04-23T08:55:22.822Z,42.47
2018-04-23T08:56:30.901Z,41.89
2018-04-23T08:57:38.967Z,43.92
2018-04-23T08:58:47.043Z,44.77
2018-04-23T08:59:55.164Z,41.00
2018-04-23T09:01:03.205Z,42.62
2018-04-23T09:02:11.288Z,43.78
2018-04-23T09:03:19.343Z,46.37
2018-04-23T09:04:27.427Z,45.69
2018-04-23T09:05:35.479Z,45.40
2018-04-23T09:06:43.578Z,44.07
2018-04-23T09:07:51.671Z,43.59
2018-04-23T09:08:59.717Z,44.82
2018-04-23T09:10:07.787Z,45.01
2018-04-23T09:11:15.873Z,44.92
2018-04-23T09:12:23.929Z,42.43
2018-04-23T09:13:32.024Z,43.30
2018-04-23T09:14:40.087Z,43.76
2018-04-23T09:15:48.160Z,41.66
2018-04-23T09:16:56.259Z,44.36
2018-04-23T09:18:04.321Z,45.14
2018-04-23T09:19:12.393Z,44.56
2018-04-23T09:20:20.466Z,44.96
2018-04-23T09:21:28.522Z,44.65
2018-04-23T09:22:36.604Z,45.06
2018-04-23T09:23:44.686Z,42.16
2018-04-23T09:24:52.800Z,43.80
2018-04-23T09:26:00.824Z,44.98
2018-04-23T09:27:08.887Z,45.83
2018-04-23T09:28:16.983Z,43.51
2018-04-23T09:29:25.017Z,40.90
2018-04-23T09:30:33.128Z,42.37
2018-04-23T09:31:41.257Z,42.35
2018-04-23T09:32:49.259Z,43.71
2018-04-23T09:33:57.342Z,42.57
2018-04-23T09:35:05.417Z,44.60
2018-04-23T09:36:13.485Z,44.70
2018-04-23T09:37:21.538Z,43.37
2018-04-23T09:38:29.628Z,42.49
2018-04-23T09:39:37.707Z,43.37
2018-04-23T09:40:45.783Z,41.04
2018-04-23T09:41:53.851Z,41.42
2018-04-23T09:43:01.930Z,41.14
2018-04-23T09:44:10.005Z,43.07
2018-04-23T09:45:18.058Z,41.35
2018-04-23T09:46:26.145Z,42.03
2018-04-23T09:47:34.207Z,41.35
2018-04-23T09:48:42.282Z,42.03
2018-04-23T09:49:50.355Z,42.22
2018-04-23T09:50:58.427Z,40.40
2018-04-23T09:52:06.498Z,40.31
2018-04-23T09:53:14.571Z,40.89
2018-04-23T09:54:22.653Z,38.95
2018-04-23T09:55:30.769Z,42.72
2018-04-23T09:56:38.787Z,38.56
2018-04-23T09:57:46.884Z,39.92
2018-04-23T09:58:54.931Z,41.06
2018-04-23T10:00:03.016Z,40.86
2018-04-23T10:01:11.099Z,40.99
2018-04-23T10:02:19.163Z,38.46
2018-04-23T10:03:27.234Z,38.15
2018-04-23T10:04:35.286Z,39.70
2018-04-23T10:05:43.392Z,40.28
2018-04-23T10:06:51.445Z,38.83
2018-04-23T10:07:59.534Z,39.03
2018-04-23T10:09:07.604Z,41.16
2018-04-23T10:10:15.659Z,40.96
2018-04-23T10:11:23.742Z,39.34
2018-04-23T10:12:31.825Z,40.19
2018-04-23T10:13:39.894Z,39.88
2018-04-23T10:14:47.961Z,41.82
2018-04-23T10:15:56.050Z,38.53
2018-04-23T10:17:04.110Z,37.46
2018-04-23T10:18:12.192Z,39.20
2018-04-23T10:19:20.256Z,40.63
2018-04-23T10:20:28.358Z,40.25
2018-04-23T10:21:36.414Z,41.89
2018-04-23T10:22:44.521Z,40.73
2018-04-23T10:23:52.549Z,41.31
2018-04-23T10:25:00.629Z,39.97
2018-04-23T10:26:08.716Z,40.65
2018-04-23T10:27:16.776Z,41.31
2018-04-23T10:28:24.838Z,39.88
2018-04-23T10:29:32.922Z,38.41
2018-04-23T10:30:40.992Z,40.07
2018-04-23T10:31:49.073Z,40.83
2018-04-23T10:32:57.139Z,38.50
2018-04-23T10:34:05.204Z,39.47
2018-04-23T10:35:13.286Z,41.02
2018-04-23T10:36:21.368Z,40.25
2018-04-23T10:37:29.429Z,39.95
2018-04-23T10:38:37.502Z,39.86
2018-04-23T10:39:45.586Z,40.25
2018-04-23T10:40:53.661Z,38.21
2018-04-23T10:42:01.742Z,39.09
2018-04-23T10:43:09.799Z,39.57
2018-04-23T10:44:17.884Z,38.89
2018-04-23T10:45:25.994Z,38.62
2018-04-23T10:46:34.005Z,36.68
2018-04-23T10:47:42.100Z,38.53
2018-04-23T10:48:50.162Z,38.64
2018-04-23T10:49:58.237Z,39.82
2018-04-23T10:51:06.358Z,38.17
2018-04-23T10:52:14.386Z,38.06
2018-04-23T10:53:22.452Z,38.45
2018-04-23T10:54:30.541Z,38.93
2018-04-23T10:55:38.602Z,39.78
2018-04-23T10:56:46.680Z,39.88
2018-04-23T10:57:54.730Z,39.97
2018-04-23T10:59:02.819Z,40.94
2018-04-23T11:00:10.894Z,40.56
2018-04-23T11:01:18.982Z,39.88
2018-04-23T11:02:27.040Z,39.39
2018-04-23T11:03:35.102Z,39.29
2018-04-23T11:04:43.192Z,38.91
2018-04-23T11:05:51.265Z,40.26
2018-04-23T11:06:59.337Z,40.17
2018-04-23T11:08:07.416Z,41.06
2018-04-23T11:09:15.451Z,39.90
2018-04-23T11:10:23.562Z,39.78
2018-04-23T11:11:31.628Z,41.04
2018-04-23T11:12:39.695Z,40.26
2018-04-23T11:13:47.781Z,40.73
2018-04-23T11:14:55.844Z,40.75
2018-04-23T11:16:03.918Z,41.02
2018-04-23T11:17:12.002Z,41.02
2018-04-23T11:18:20.070Z,41.39
2018-04-23T11:19:28.149Z,41.09
2018-04-23T11:20:36.222Z,42.35
2018-04-23T11:21:44.290Z,44.56
2018-04-23T11:22:52.356Z,45.89
2018-04-23T11:24:00.419Z,46.56
2018-04-23T11:25:08.501Z,49.95
2018-04-23T11:26:16.588Z,51.65
2018-04-23T11:27:24.628Z,51.63
2018-04-23T11:28:32.731Z,54.31
2018-04-23T11:29:40.782Z,56.76
2018-04-23T11:30:48.864Z,57.82
2018-04-23T11:31:56.942Z,59.17
2018-04-23T11:33:04.981Z,61.16
2018-04-23T11:34:13.066Z,63.44
2018-04-23T11:35:21.136Z,65.37
2018-04-23T11:36:29.226Z,64.18
2018-04-23T11:37:37.312Z,64.47
2018-04-23T11:38:45.368Z,64.47
2018-04-23T11:39:53.413Z,65.01
2018-04-23T11:41:01.509Z,64.50
2018-04-23T11:42:09.570Z,64.60
2018-04-23T11:43:17.654Z,65.69
2018-04-23T11:44:25.714Z,71.22
2018-04-23T11:45:33.785Z,69.84
2018-04-23T11:46:41.846Z,77.09
2018-04-23T11:47:49.925Z,78.59
2018-04-23T11:48:58.033Z,85.16
2018-04-23T11:50:06.061Z,91.82
2018-04-23T11:51:14.135Z,92.63
2018-04-23T11:52:22.199Z,92.97
2018-04-23T11:53:30.378Z,93.74
2018-04-23T11:54:38.345Z,92.88
2018-04-23T11:55:46.408Z,93.26
2018-04-23T11:56:54.462Z,93.16
2018-04-23T11:58:02.525Z,92.30
2018-04-23T11:59:10.679Z,91.25
2018-04-23T12:00:18.732Z,92.21
2018-04-23T12:01:26.732Z,93.07
2018-04-23T12:02:34.779Z,93.45
2018-04-23T12:03:42.875Z,93.69
2018-04-23T12:04:50.943Z,91.58
2018-04-23T12:05:59.012Z,91.49
2018-04-23T12:07:07.064Z,91.25
2018-04-23T12:08:15.114Z,91.05
2018-04-23T12:09:23.209Z,90.48
2018-04-23T12:10:31.271Z,88.28
2018-04-23T12:11:39.334Z,90.29
2018-04-23T12:12:47.413Z,91.25
2018-04-23T12:13:55.477Z,90.44
2018-04-23T12:15:03.541Z,88.62
2018-04-23T12:16:11.645Z,88.56
2018-04-23T12:17:19.679Z,89.29
2018-04-23T12:18:27.745Z,87.95
2018-04-23T12:19:35.804Z,89.00
2018-04-23T12:20:43.868Z,89.19
2018-04-23T12:21:51.941Z,90.44
2018-04-23T12:23:00.019Z,90.24
2018-04-23T12:24:08.069Z,91.30
2018-04-23T12:25:16.130Z,89.29
2018-04-23T12:26:24.211Z,89.23
2018-04-23T12:27:32.274Z,91.82
2018-04-23T12:28:40.335Z,90.19
2018-04-23T12:29:48.397Z,90.19
2018-04-23T12:30:56.474Z,90.39
2018-04-23T12:32:04.535Z,91.05
2018-04-23T12:33:12.614Z,88.95
2018-04-23T12:34:20.679Z,89.23
2018-04-23T12:35:28.763Z,89.62
2018-04-23T12:36:36.802Z,87.80
2018-04-23T12:37:44.848Z,87.41
2018-04-23T12:38:52.930Z,86.31
2018-04-23T12:40:01.013Z,88.90
2018-04-23T12:41:09.094Z,88.90
2018-04-23T12:42:17.138Z,88.75
2018-04-23T12:43:25.179Z,85.21
2018-04-23T12:44:33.268Z,87.79
2018-04-23T12:45:41.350Z,84.25
2018-04-23T12:46:49.398Z,83.71
2018-04-23T12:47:57.466Z,81.22
2018-04-23T12:49:05.512Z,83.52
2018-04-23T12:50:13.617Z,83.42
2018-04-23T12:51:21.676Z,83.71
2018-04-23T12:52:29.737Z,83.42
2018-04-23T12:53:37.943Z,82.70
2018-04-23T12:54:45.872Z,83.56
2018-04-23T12:55:53.933Z,86.25
2018-04-23T12:57:02.002Z,83.47
2018-04-23T12:58:10.070Z,82.51
2018-04-23T12:59:18.155Z,83.75
2018-04-23T13:00:26.216Z,81.16
2018-04-23T13:01:34.296Z,82.35
2018-04-23T13:02:42.354Z,82.26
2018-04-23T13:03:50.441Z,81.68
2018-04-23T13:04:58.476Z,82.45
2018-04-23T13:06:06.556Z,80.63
2018-04-23T13:07:14.610Z,80.57
2018-04-23T13:08:22.685Z,81.24
2018-04-23T13:09:30.772Z,82.59
2018-04-23T13:10:38.846Z,79.42
2018-04-23T13:11:46.911Z,81.05
2018-04-23T13:12:54.946Z,82.15
2018-04-23T13:14:03.016Z,79.46
2018-04-23T13:15:11.107Z,80.42
2018-04-23T13:16:19.169Z,78.69
2018-04-23T13:17:27.229Z,80.71
2018-04-23T13:18:35.284Z,81.96
2018-04-23T13:19:43.380Z,77.63
2018-04-23T13:20:51.444Z,76.48
2018-04-23T13:21:59.522Z,77.31
2018-04-23T13:23:07.578Z,78.45
2018-04-23T13:24:15.645Z,76.96
2018-04-23T13:25:23.716Z,78.30
2018-04-23T13:26:31.804Z,77.40
2018-04-23T13:27:39.854Z,79.71
2018-04-23T13:28:47.929Z,76.73
2018-04-23T13:29:55.990Z,78.36
2018-04-23T13:31:04.078Z,77.59
2018-04-23T13:32:12.150Z,78.17
2018-04-23T13:33:20.215Z,78.84
2018-04-23T13:34:28.280Z,77.50
2018-04-23T13:35:36.345Z,78.45
2018-04-23T13:36:44.475Z,77.06
2018-04-23T13:37:52.494Z,77.21
2018-04-23T13:39:00.570Z,77.73
2018-04-23T13:40:08.605Z,76.77
2018-04-23T13:41:16.692Z,78.50
2018-04-23T13:42:24.788Z,75.90
2018-04-23T13:43:32.850Z,77.92
2018-04-23T13:44:40.888Z,76.39
2018-04-23T13:45:48.961Z,79.65
2018-04-23T13:46:57.030Z,75.13
2018-04-23T13:48:05.069Z,75.42
2018-04-23T13:49:13.163Z,75.71
2018-04-23T13:50:21.233Z,76.09
2018-04-23T13:51:29.312Z,78.50
2018-04-23T13:52:37.367Z,76.25
2018-04-23T13:53:45.432Z,75.96
2018-04-23T13:54:53.510Z,74.52
2018-04-23T13:56:01.566Z,78.03
2018-04-23T13:57:09.624Z,77.26
2018-04-23T13:58:17.712Z,76.88
2018-04-23T13:59:25.775Z,76.50
2018-04-23T14:00:33.863Z,77.46
2018-04-23T14:01:41.910Z,78.42
2018-04-23T14:02:49.980Z,75.92
2018-04-23T14:03:58.051Z,77.46
2018-04-23T14:05:06.125Z,79.09
2018-04-23T14:06:14.197Z,77.94
2018-04-23T14:07:22.259Z,77.94
2018-04-23T14:08:30.329Z,77.94
2018-04-23T14:09:38.398Z,77.08
2018-04-23T14:10:46.470Z,75.73
2018-04-23T14:11:54.516Z,76.79
2018-04-23T14:13:02.591Z,74.58
2018-04-23T14:14:10.637Z,74.77
2018-04-23T14:15:18.720Z,74.77
2018-04-23T14:16:26.797Z,73.94
2018-04-23T14:17:34.868Z,73.75
2018-04-23T14:18:42.932Z,74.33
2018-04-23T14:19:50.999Z,72.69
2018-04-23T14:20:59.056Z,74.04
2018-04-23T14:22:07.122Z,74.43
2018-04-23T14:23:15.179Z,72.60
2018-04-23T14:24:23.289Z,72.79
2018-04-23T14:25:31.329Z,70.39
2018-04-23T14:26:39.399Z,72.69
2018-04-23T14:27:47.463Z,70.29
2018-04-23T14:28:55.532Z,69.72
2018-04-23T14:30:03.608Z,67.80
2018-04-23T14:31:11.678Z,70.04
2018-04-23T14:32:19.739Z,71.19
2018-04-23T14:33:27.829Z,73.79
2018-04-23T14:34:35.864Z,70.43
2018-04-23T14:35:43.954Z,68.79
2018-04-23T14:36:52.013Z,67.74